createdAt,value
2018-08-20T00:00:45.189Z,87.66
2018-08-20T00:03:13.857Z,87.87
2018-08-20T00:05:47.325Z,88.09
2018-08-20T00:08:15.762Z,88.21
2018-08-20T00:10:44.189Z,88.79
2018-08-20T00:13:12.626Z,88.26
2018-08-20T00:15:41.061Z,86.91
2018-08-20T00:18:12.333Z,86.71
2018-08-20T00:20:40.764Z,86.48
2018-08-20T00:23:09.164Z,86.32
2018-08-20T00:25:37.869Z,86.17
2018-08-20T00:28:06.285Z,85.47
2018-08-20T00:30:34.770Z,85.21
2018-08-20T00:33:03.186Z,84.89
2018-08-20T00:35:31.609Z,84.34
2018-08-20T00:38:00.021Z,83.90
2018-08-20T00:40:33.203Z,83.05
2018-08-20T00:43:01.650Z,82.82
2018-08-20T00:45:30.105Z,82.89
2018-08-20T00:47:58.511Z,82.12
2018-08-20T00:50:26.908Z,82.50
2018-08-20T00:52:55.389Z,83.51
2018-08-20T00:55:23.844Z,84.10
2018-08-20T00:57:52.298Z,83.98
2018-08-20T01:00:20.767Z,84.89
2018-08-20T01:02:49.205Z,84.94
2018-08-20T01:05:17.665Z,84.35
2018-08-20T01:07:46.105Z,84.44
2018-08-20T01:10:14.569Z,84.82
2018-08-20T01:12:43.013Z,84.39
2018-08-20T01:15:11.539Z,84.42
2018-08-20T01:17:39.968Z,84.40
2018-08-20T01:20:08.514Z,85.08
2018-08-20T01:22:37.015Z,84.55
2018-08-20T01:25:05.521Z,84.26
2018-08-20T01:27:33.986Z,85.15
2018-08-20T01:30:02.476Z,85.26
2018-08-20T01:32:30.967Z,85.45
2018-08-20T01:35:14.779Z,86.03
2018-08-20T01:37:43.317Z,86.08
2018-08-20T01:40:11.733Z,85.88
2018-08-20T01:42:40.235Z,86.23
2018-08-20T01:45:08.689Z,85.66
2018-08-20T01:47:37.153Z,85.77
2018-08-20T01:50:05.733Z,86.41
2018-08-20T01:52:34.224Z,86.11
2018-08-20T01:55:02.713Z,86.53
2018-08-20T01:57:31.187Z,86.00
2018-08-20T01:59:59.649Z,86.27
2018-08-20T02:02:28.133Z,86.10
2018-08-20T02:04:56.654Z,85.79
2018-08-20T02:07:25.113Z,85.20
2018-08-20T02:09:53.612Z,85.23
2018-08-20T02:12:22.072Z,85.91
2018-08-20T02:14:50.509Z,85.66
2018-08-20T02:17:19.084Z,85.78
2018-08-20T02:19:47.520Z,85.46
2018-08-20T02:22:16.014Z,85.76
2018-08-20T02:24:44.460Z,85.20
2018-08-20T02:27:12.941Z,86.25
2018-08-20T02:29:41.501Z,86.64
2018-08-20T02:32:10.001Z,86.45
2018-08-20T02:34:38.427Z,86.08
2018-08-20T02:37:07.116Z,86.74
2018-08-20T02:39:35.614Z,86.74
2018-08-20T02:42:06.210Z,86.53
2018-08-20T02:44:34.658Z,87.28
2018-08-20T02:47:03.199Z,87.31
2018-08-20T02:49:31.664Z,87.50
2018-08-20T02:52:00.119Z,87.94
2018-08-20T02:54:28.613Z,88.08
2018-08-20T02:56:57.076Z,88.40
2018-08-20T02:59:26.333Z,88.78
2018-08-20T03:01:54.731Z,88.18
2018-08-20T03:04:23.178Z,88.84
2018-08-20T03:06:51.570Z,88.60
2018-08-20T03:09:19.969Z,88.56
2018-08-20T03:11:48.403Z,89.48
2018-08-20T03:14:16.832Z,88.53
2018-08-20T03:16:45.240Z,89.55
2018-08-20T03:19:13.634Z,89.38
2018-08-20T03:21:42.037Z,88.90
2018-08-20T03:24:10.570Z,89.51
2018-08-20T03:26:39.002Z,89.59
2018-08-20T03:29:07.432Z,89.08
2018-08-20T03:31:35.858Z,89.95
2018-08-20T03:34:04.322Z,89.81
2018-08-20T03:36:32.944Z,89.03
2018-08-20T03:39:02.005Z,89.12
2018-08-20T03:41:30.397Z,89.98
2018-08-20T03:43:58.861Z,89.65
2018-08-20T03:46:27.368Z,90.04
2018-08-20T03:48:55.762Z,89.69
2018-08-20T03:51:24.281Z,89.21
2018-08-20T03:53:52.905Z,89.37
2018-08-20T03:56:21.598Z,89.79
2018-08-20T03:58:50.585Z,89.75
2018-08-20T04:01:19.162Z,89.63
2018-08-20T04:03:47.809Z,89.66
2018-08-20T04:06:16.501Z,90.62
2018-08-20T04:09:48.715Z,90.90
2018-08-20T04:12:17.357Z,91.10
2018-08-20T04:14:45.944Z,90.88
2018-08-20T04:17:14.757Z,90.73
2018-08-20T04:19:43.391Z,90.38
2018-08-20T04:22:12.060Z,91.05
2018-08-20T04:24:56.922Z,91.00
2018-08-20T04:27:25.601Z,91.82
2018-08-20T04:29:54.257Z,91.44
2018-08-20T04:32:23.005Z,92.08
2018-08-20T04:34:51.658Z,91.71
2018-08-20T04:37:20.274Z,92.04
2018-08-20T04:39:48.903Z,91.88
2018-08-20T04:42:17.787Z,91.93
2018-08-20T04:44:46.457Z,92.21
2018-08-20T04:47:15.025Z,92.54
2018-08-20T04:49:43.657Z,92.37
2018-08-20T04:52:12.099Z,91.78
2018-08-20T04:54:40.505Z,92.26
2018-08-20T04:57:08.973Z,91.83
2018-08-20T04:59:37.369Z,92.53
2018-08-20T05:02:06.034Z,91.86
2018-08-20T05:04:34.463Z,91.80
2018-08-20T05:07:02.946Z,92.50
2018-08-20T05:09:31.478Z,92.32
2018-08-20T05:11:59.998Z,91.95
2018-08-20T05:14:28.425Z,91.75
2018-08-20T05:16:56.947Z,91.89
2018-08-20T05:19:25.385Z,90.98
2018-08-20T05:21:53.841Z,91.43
2018-08-20T05:24:22.335Z,91.04
2018-08-20T05:26:50.765Z,91.12
2018-08-20T05:29:19.740Z,90.11
2018-08-20T05:31:48.174Z,89.75
2018-08-20T05:34:16.656Z,90.09
2018-08-20T05:36:45.126Z,89.28
2018-08-20T05:39:13.557Z,89.13
2018-08-20T05:41:41.975Z,89.31
2018-08-20T05:44:10.397Z,89.06
2018-08-20T05:46:38.839Z,89.10
2018-08-20T05:49:07.305Z,88.59
2018-08-20T05:51:35.765Z,88.56
2018-08-20T05:54:04.343Z,87.72
2018-08-20T05:56:32.800Z,87.52
2018-08-20T05:59:01.253Z,87.33
2018-08-20T06:01:30.021Z,86.56
2018-08-20T06:03:58.515Z,85.91
2018-08-20T06:06:27.041Z,86.31
2018-08-20T06:08:55.470Z,85.51
2018-08-20T06:11:23.925Z,85.71
2018-08-20T06:13:52.405Z,84.62
2018-08-20T06:16:23.869Z,85.17
2018-08-20T06:18:52.359Z,84.54
2018-08-20T06:21:20.842Z,84.49
2018-08-20T06:23:49.326Z,83.02
2018-08-20T06:26:17.804Z,83.15
2018-08-20T06:28:46.286Z,83.20
2018-08-20T06:31:14.707Z,81.97
2018-08-20T06:33:43.194Z,82.12
2018-08-20T06:36:11.750Z,83.04
2018-08-20T06:38:40.248Z,83.17
2018-08-20T06:41:08.840Z,83.32
2018-08-20T06:43:37.280Z,82.74
2018-08-20T06:46:05.857Z,82.81
2018-08-20T06:48:34.404Z,83.00
2018-08-20T06:51:02.898Z,82.23
2018-08-20T06:53:31.390Z,82.73
2018-08-20T06:55:59.877Z,82.14
2018-08-20T06:58:28.490Z,82.02
2018-08-20T07:00:57.051Z,80.64
2018-08-20T07:03:25.521Z,80.80
2018-08-20T07:05:53.955Z,79.80
2018-08-20T07:08:22.463Z,80.58
2018-08-20T07:10:50.939Z,80.53
2018-08-20T07:13:27.449Z,79.72
2018-08-20T07:15:55.887Z,80.84
2018-08-20T07:18:24.373Z,80.43
2018-08-20T07:20:52.837Z,79.61
2018-08-20T07:23:21.437Z,79.42
2018-08-20T07:25:49.926Z,79.87
2018-08-20T07:28:18.385Z,79.63
2018-08-20T07:30:46.963Z,80.34
2018-08-20T07:33:15.507Z,80.24
2018-08-20T07:35:43.969Z,78.91
2018-08-20T07:40:39.886Z,80.14
2018-08-20T07:43:08.459Z,79.61
2018-08-20T07:45:36.935Z,80.14
2018-08-20T07:48:05.433Z,79.76
2018-08-20T07:50:33.943Z,78.67
2018-08-20T07:53:02.393Z,77.01
2018-08-20T07:55:30.906Z,77.75
2018-08-20T07:57:59.328Z,78.20
2018-08-20T08:00:27.740Z,78.53
2018-08-20T08:02:56.204Z,79.81
2018-08-20T08:05:24.609Z,80.18
2018-08-20T08:07:53.054Z,80.27
2018-08-20T08:10:21.489Z,79.25
2018-08-20T08:12:49.887Z,80.06
2018-08-20T08:15:18.342Z,80.63
2018-08-20T08:17:46.980Z,79.28
2018-08-20T08:20:16.016Z,79.63
2018-08-20T08:22:44.738Z,79.09
2018-08-20T08:25:13.196Z,78.49
2018-08-20T08:27:41.626Z,78.72
2018-08-20T08:30:16.817Z,78.80
2018-08-20T08:32:45.442Z,78.93
2018-08-20T08:35:14.523Z,79.40
2018-08-20T08:37:43.052Z,78.74
2018-08-20T08:40:13.270Z,78.80
2018-08-20T08:42:41.733Z,77.65
2018-08-20T08:45:17.068Z,77.49
2018-08-20T08:47:46.025Z,77.89
2018-08-20T08:50:15.801Z,78.22
2018-08-20T08:52:44.506Z,77.75
2018-08-20T08:55:12.986Z,76.55
2018-08-20T08:57:41.407Z,77.31
2018-08-20T09:00:18.684Z,77.34
2018-08-20T09:02:47.341Z,76.36
2018-08-20T09:05:15.885Z,75.70
2018-08-20T09:07:44.465Z,74.33
2018-08-20T09:10:13.410Z,74.91
2018-08-20T09:12:53.164Z,73.42
2018-08-20T09:15:21.770Z,72.13
2018-08-20T09:17:50.193Z,72.36
2018-08-20T09:20:18.729Z,73.22
2018-08-20T09:22:47.160Z,74.65
2018-08-20T09:25:16.157Z,75.83
2018-08-20T09:27:45.626Z,75.15
2018-08-20T09:30:16.666Z,75.04
2018-08-20T09:32:46.121Z,74.12
2018-08-20T09:35:14.571Z,73.63
2018-08-20T09:37:43.643Z,72.92
2018-08-20T09:40:12.613Z,73.20
2018-08-20T09:42:41.685Z,73.66
2018-08-20T09:45:10.381Z,74.56
2018-08-20T09:47:39.731Z,74.38
2018-08-20T09:50:09.913Z,75.07
2018-08-20T09:52:38.391Z,75.50
2018-08-20T09:55:07.673Z,75.09
2018-08-20T09:57:36.177Z,75.48
2018-08-20T10:00:07.090Z,75.29
2018-08-20T10:02:35.581Z,75.34
2018-08-20T10:05:04.114Z,75.66
2018-08-20T10:07:32.710Z,75.39
2018-08-20T10:10:01.580Z,76.05
2018-08-20T10:12:46.591Z,75.84
2018-08-20T10:15:15.506Z,74.66
2018-08-20T10:17:53.169Z,73.49
2018-08-20T10:26:11.045Z,74.05
2018-08-20T10:28:49.868Z,74.40
2018-08-20T10:31:24.494Z,74.77
2018-08-20T10:33:53.258Z,75.54
2018-08-20T10:36:21.822Z,75.94
2018-08-20T10:38:50.213Z,75.11
2018-08-20T10:41:22.906Z,75.29
2018-08-20T10:43:51.367Z,75.67
2018-08-20T10:46:20.149Z,75.05
2018-08-20T10:48:48.825Z,74.64
2018-08-20T10:51:17.255Z,73.39
2018-08-20T10:53:45.689Z,73.37
2018-08-20T10:56:14.665Z,72.74
2018-08-20T10:58:43.077Z,72.67
2018-08-20T11:01:11.485Z,73.68
2018-08-20T11:03:43.335Z,72.15
2018-08-20T11:06:11.729Z,72.33
2018-08-20T11:08:42.224Z,72.26
2018-08-20T11:11:10.622Z,72.36
2018-08-20T11:13:39.081Z,71.80
2018-08-20T11:16:07.526Z,70.41
2018-08-20T11:18:39.643Z,70.21
2018-08-20T11:21:08.030Z,70.78
2018-08-20T11:23:36.478Z,70.60
2018-08-20T11:26:04.887Z,70.37
2018-08-20T11:28:33.351Z,72.39
2018-08-20T11:31:01.797Z,71.80
2018-08-20T11:33:30.263Z,71.31
2018-08-20T11:36:03.110Z,71.37
2018-08-20T11:38:31.575Z,71.50
2018-08-20T11:40:59.996Z,71.76
2018-08-20T11:43:28.425Z,71.53
2018-08-20T11:45:56.804Z,71.07
2018-08-20T11:48:25.233Z,70.81
2018-08-20T11:50:53.657Z,71.50
2018-08-20T11:53:23.097Z,71.85
2018-08-20T11:55:51.642Z,71.23
2018-08-20T11:58:20.051Z,72.00
2018-08-20T12:00:48.466Z,72.90
2018-08-20T12:03:17.464Z,73.58
2018-08-20T12:05:46.408Z,72.78
2018-08-20T12:08:15.414Z,72.88
2018-08-20T12:10:44.386Z,72.83
2018-08-20T12:13:13.047Z,73.38
2018-08-20T12:15:41.477Z,72.28
2018-08-20T12:18:09.921Z,72.50
2018-08-20T12:20:38.385Z,71.18
2018-08-20T12:23:07.783Z,71.84
2018-08-20T12:25:36.205Z,71.87
2018-08-20T12:28:04.683Z,72.21
2018-08-20T12:30:33.141Z,70.37
2018-08-20T12:33:01.606Z,69.77
2018-08-20T12:35:30.073Z,69.93
2018-08-20T12:37:58.477Z,69.31
2018-08-20T12:40:27.127Z,68.82
2018-08-20T12:42:56.024Z,69.33
2018-08-20T12:45:24.476Z,68.16
2018-08-20T12:47:52.897Z,68.65
2018-08-20T12:50:23.340Z,68.80
2018-08-20T12:52:51.815Z,68.79
2018-08-20T12:55:20.213Z,69.46
2018-08-20T12:57:49.038Z,68.65
2018-08-20T13:00:17.948Z,70.01
2018-08-20T13:14:18.800Z,68.39
2018-08-20T13:16:47.278Z,69.20
2018-08-20T13:19:15.709Z,68.79
2018-08-20T13:21:44.148Z,68.15
2018-08-20T13:24:12.647Z,66.93
2018-08-20T13:26:41.117Z,68.68
2018-08-20T13:29:09.624Z,70.05
2018-08-20T13:31:40.217Z,70.71
2018-08-20T13:34:08.679Z,70.80
2018-08-20T13:36:37.112Z,70.98
2018-08-20T13:39:07.085Z,71.41
2018-08-20T13:41:35.679Z,71.31
2018-08-20T13:44:04.293Z,69.68
2018-08-20T13:46:32.679Z,69.01
2018-08-20T13:49:01.120Z,69.33
2018-08-20T13:51:29.546Z,69.43
2018-08-20T13:53:57.936Z,67.81
2018-08-20T13:56:26.385Z,68.02
2018-08-20T13:58:54.805Z,68.37
2018-08-20T14:01:23.213Z,68.95
2018-08-20T14:03:51.623Z,68.75
2018-08-20T14:06:20.049Z,68.08
2018-08-20T14:08:48.469Z,68.55
2018-08-20T14:11:16.880Z,67.76
2018-08-20T14:13:45.255Z,66.89
2018-08-20T14:16:13.686Z,67.55
2018-08-20T14:18:42.130Z,68.34
2018-08-20T14:21:13.181Z,68.04
2018-08-20T14:23:43.262Z,66.91
2018-08-20T14:26:11.747Z,64.47
2018-08-20T14:28:40.154Z,64.90
2018-08-20T14:31:08.642Z,65.48
2018-08-20T14:33:37.065Z,65.19
2018-08-20T14:36:05.973Z,66.05
2018-08-20T14:38:34.761Z,65.99
2018-08-20T14:41:03.282Z,67.06
2018-08-20T14:43:31.761Z,67.71
2018-08-20T14:46:06.381Z,67.63
2018-08-20T14:48:34.868Z,66.29
2018-08-20T14:51:03.439Z,66.75
2018-08-20T14:53:31.942Z,66.51
2018-08-20T14:56:00.376Z,65.62
2018-08-20T14:58:28.857Z,64.50
2018-08-20T15:00:57.343Z,63.65
2018-08-20T15:03:25.902Z,61.48
2018-08-20T15:05:54.432Z,57.18
2018-08-20T15:08:22.914Z,57.88
2018-08-20T15:10:51.476Z,59.25
2018-08-20T15:13:20.861Z,60.75
2018-08-20T15:15:49.290Z,61.31
2018-08-20T15:18:17.710Z,60.17
2018-08-20T15:20:46.187Z,61.23
2018-08-20T15:23:14.637Z,61.92
2018-08-20T15:25:43.077Z,59.59
2018-08-20T15:28:11.543Z,60.20
2018-08-20T15:30:40.004Z,61.21
2018-08-20T15:33:08.590Z,60.53
2018-08-20T15:35:43.738Z,61.68
2018-08-20T15:38:12.244Z,62.11
2018-08-20T15:40:41.713Z,61.70
2018-08-20T15:43:10.157Z,62.12
2018-08-20T15:45:38.605Z,62.86
2018-08-20T15:48:07.402Z,64.25
2018-08-20T15:50:35.883Z,64.25
2018-08-20T15:53:07.962Z,63.93
2018-08-20T15:55:36.319Z,64.17
2018-08-20T15:58:05.031Z,64.67
2018-08-20T16:00:34.309Z,64.69
2018-08-20T16:03:03.873Z,64.94
2018-08-20T16:05:32.350Z,65.12
2018-08-20T16:08:00.794Z,65.47
2018-08-20T16:10:29.386Z,66.04
2018-08-20T16:12:57.898Z,66.40
2018-08-20T16:15:26.305Z,66.25
2018-08-20T16:17:54.710Z,65.08
2018-08-20T16:20:23.165Z,65.06
2018-08-20T16:22:51.634Z,64.87
2018-08-20T16:25:20.073Z,65.19
2018-08-20T16:27:48.477Z,65.24
2018-08-20T16:30:16.930Z,65.56
2018-08-20T16:32:45.386Z,65.93
2018-08-20T16:35:17.236Z,65.98
2018-08-20T16:37:45.700Z,66.00
2018-08-20T16:40:14.186Z,65.99
2018-08-20T16:42:42.667Z,66.27
2018-08-20T16:45:11.183Z,66.49
2018-08-20T16:47:40.021Z,67.13
2018-08-20T16:50:10.465Z,67.76
2018-08-20T16:52:38.929Z,68.18
2018-08-20T16:55:07.954Z,68.12
2018-08-20T16:57:36.547Z,68.20
2018-08-20T17:00:06.861Z,68.77
2018-08-20T17:02:36.108Z,68.46
2018-08-20T17:05:04.705Z,68.75
2018-08-20T17:07:33.218Z,68.81
2018-08-20T17:10:01.664Z,69.37
2018-08-20T17:12:30.110Z,69.39
2018-08-20T17:14:59.545Z,69.42
2018-08-20T17:17:28.009Z,69.92
2018-08-20T17:19:56.421Z,70.13
2018-08-20T17:22:24.876Z,70.21
2018-08-20T17:24:56.676Z,70.71
2018-08-20T17:27:25.129Z,71.14
2018-08-20T17:29:55.635Z,71.12
2018-08-20T17:32:24.134Z,71.27
2018-08-20T17:34:52.700Z,71.20
2018-08-20T17:37:21.925Z,71.76
2018-08-20T17:40:06.285Z,71.94
2018-08-20T17:42:35.035Z,72.07
2018-08-20T17:45:03.952Z,73.15
2018-08-20T17:47:32.814Z,73.75
2018-08-20T17:50:01.644Z,74.64
2018-08-20T17:52:34.107Z,75.25
2018-08-20T17:55:04.056Z,76.02
2018-08-20T17:57:32.610Z,75.89
2018-08-20T18:00:42.897Z,76.10
2018-08-20T18:03:18.881Z,76.25
2018-08-20T18:05:56.018Z,76.78
2018-08-20T18:08:25.613Z,77.02
2018-08-20T18:10:54.197Z,77.17
2018-08-20T18:13:49.511Z,77.67
2018-08-20T18:16:19.458Z,77.20
2018-08-20T18:18:49.311Z,77.89
2018-08-20T18:21:17.851Z,78.12
2018-08-20T18:23:46.371Z,78.06
2018-08-20T18:26:16.029Z,78.06
2018-08-20T18:28:49.911Z,78.26
2018-08-20T18:31:25.094Z,78.51
2018-08-20T18:33:53.681Z,78.42
2018-08-20T18:36:29.801Z,79.02
2018-08-20T18:39:01.915Z,78.91
2018-08-20T18:41:51.884Z,79.34
2018-08-20T18:44:21.777Z,79.84
2018-08-20T18:46:50.873Z,80.23
2018-08-20T18:49:19.576Z,80.33
2018-08-20T18:52:07.313Z,80.04
2018-08-20T18:54:40.488Z,80.04
2018-08-20T18:57:09.566Z,80.41
2018-08-20T18:59:39.271Z,80.22
2018-08-20T19:02:09.772Z,80.43
2018-08-20T19:04:43.456Z,80.72
2018-08-20T19:07:16.017Z,80.67
2018-08-20T19:09:48.512Z,80.76
2018-08-20T19:12:17.039Z,81.94
2018-08-20T19:14:45.568Z,81.69
2018-08-20T19:17:27.291Z,81.96
2018-08-20T19:20:00.298Z,81.57
2018-08-20T19:22:29.817Z,81.65
2018-08-20T19:24:58.293Z,81.09
2018-08-20T19:27:28.943Z,80.19
2018-08-20T19:29:57.473Z,80.73
2018-08-20T19:32:26.209Z,80.93
2018-08-20T19:34:54.675Z,79.49
2018-08-20T19:37:23.334Z,79.82
2018-08-20T19:39:51.799Z,79.68
2018-08-20T19:42:38.725Z,78.96
2018-08-20T19:45:09.130Z,79.61
2018-08-20T19:47:37.601Z,81.09
2018-08-20T19:50:07.515Z,80.32
2018-08-20T19:52:36.060Z,79.78
2018-08-20T19:55:08.882Z,79.98
2018-08-20T19:57:37.527Z,78.56
2018-08-20T20:00:09.190Z,78.71
2018-08-20T20:02:37.809Z,78.60
2018-08-20T20:05:06.963Z,78.62
2018-08-20T20:07:36.884Z,78.45
2018-08-20T20:10:13.885Z,78.61
2018-08-20T20:12:47.712Z,79.32
2018-08-20T20:15:16.185Z,79.56
2018-08-20T20:17:44.752Z,78.71
2018-08-20T20:20:13.197Z,78.69
2018-08-20T20:22:42.693Z,79.13
2018-08-20T20:25:11.198Z,78.24
2018-08-20T20:27:39.678Z,78.33
2018-08-20T20:30:08.606Z,79.06
2018-08-20T20:32:37.113Z,77.24
2018-08-20T20:35:07.173Z,78.24
2018-08-20T20:37:35.671Z,78.08
2018-08-20T20:40:04.277Z,78.91
2018-08-20T20:42:32.777Z,80.78
2018-08-20T20:45:01.298Z,81.03
2018-08-20T20:47:29.830Z,80.44
2018-08-20T20:50:00.434Z,80.83
2018-08-20T20:52:29.012Z,81.20
2018-08-20T20:54:57.517Z,80.79
2018-08-20T20:57:25.948Z,81.11
2018-08-20T20:59:54.769Z,81.96
2018-08-20T21:02:23.246Z,82.18
2018-08-20T21:04:51.723Z,83.21
2018-08-20T21:07:24.713Z,83.78
2018-08-20T21:09:53.256Z,82.42
2018-08-20T21:12:21.874Z,82.93
2018-08-20T21:14:50.413Z,82.94
2018-08-20T21:17:18.896Z,82.27
2018-08-20T21:19:47.447Z,82.66
2018-08-20T21:22:15.861Z,81.40
2018-08-20T21:24:44.373Z,81.80
2018-08-20T21:27:18.899Z,81.79
2018-08-20T21:29:47.448Z,81.17
2018-08-20T21:32:15.893Z,82.61
2018-08-20T21:34:44.424Z,83.00
2018-08-20T21:37:12.873Z,84.05
2018-08-20T21:39:41.389Z,84.22
2018-08-20T21:42:09.868Z,84.11
2018-08-20T21:44:38.487Z,84.58
2018-08-20T21:47:25.142Z,85.08
2018-08-20T21:49:53.582Z,84.69
2018-08-20T21:52:22.126Z,85.29
2018-08-20T21:54:50.538Z,85.22
2018-08-20T21:57:19.090Z,85.51
2018-08-20T21:59:59.281Z,86.34
2018-08-20T22:02:32.081Z,85.78
2018-08-20T22:05:00.533Z,85.61
2018-08-20T22:07:28.988Z,86.46
2018-08-20T22:09:57.418Z,85.87
2018-08-20T22:12:26.133Z,86.34
2018-08-20T22:14:54.582Z,85.30
2018-08-20T22:17:28.134Z,85.39
2018-08-20T22:19:56.698Z,86.28
2018-08-20T22:22:27.055Z,86.88
2018-08-20T22:24:58.843Z,85.92
2018-08-20T22:27:28.003Z,85.23
2018-08-20T22:30:00.417Z,85.64
2018-08-20T22:32:30.342Z,84.88
2018-08-20T22:34:58.945Z,84.82
2018-08-20T22:37:27.368Z,85.00
2018-08-20T22:40:01.102Z,84.87
2018-08-20T22:42:41.893Z,85.16
2018-08-20T22:45:11.621Z,84.95
2018-08-20T22:47:40.136Z,85.24
2018-08-20T22:50:08.581Z,85.19
2018-08-20T22:52:37.005Z,85.56
2018-08-20T22:55:07.272Z,85.74
2018-08-20T22:57:35.695Z,85.67
2018-08-20T23:00:11.220Z,85.15
2018-08-20T23:02:39.757Z,85.83
2018-08-20T23:05:12.357Z,85.48
2018-08-20T23:07:40.797Z,86.11
2018-08-20T23:10:09.297Z,86.52
2018-08-20T23:12:40.792Z,86.87
2018-08-20T23:15:10.015Z,86.87
2018-08-20T23:17:38.479Z,87.44
2018-08-20T23:20:12.434Z,87.70
2018-08-20T23:22:40.853Z,88.01
2018-08-20T23:25:09.407Z,87.72
2018-08-20T23:27:40.861Z,87.68
2018-08-20T23:30:10.391Z,87.08
2018-08-20T23:32:38.831Z,88.25
2018-08-20T23:35:07.321Z,87.62
2018-08-20T23:37:36.090Z,87.81
2018-08-20T23:40:05.154Z,88.10
2018-08-20T23:42:33.582Z,88.63
2018-08-20T23:45:02.547Z,88.19
2018-08-20T23:47:30.993Z,88.48
2018-08-20T23:49:59.519Z,88.33
2018-08-20T23:52:27.942Z,89.02
2018-08-20T23:54:56.358Z,88.31
2018-08-20T23:57:24.775Z,88.40
2018-08-20T23:59:53.208Z,87.87
